sensor_id;sensor_type;location;lat;lon;timestamp;P1;durP1;ratioP1;P2;durP2;ratioP2
18443;SDS011;9350;53.176;8.194;2022-10-16T00:01:35;5.97;;;3.42;;
18443;SDS011;9350;53.176;8.194;2022-10-16T00:04:03;6.07;;;3.20;;
18443;SDS011;9350;53.176;8.194;2022-10-16T00:06:30;6.82;;;2.90;;
18443;SDS011;9350;53.176;8.194;2022-10-16T00:08:57;14.27;;;3.25;;
18443;SDS011;9350;53.176;8.194;2022-10-16T00:11:27;6.47;;;3.00;;
18443;SDS011;9350;53.176;8.194;2022-10-16T00:13:56;4.40;;;2.65;;
18443;SDS011;9350;53.176;8.194;2022-10-16T00:16:24;3.80;;;2.78;;
18443;SDS011;9350;53.176;8.194;2022-10-16T00:18:51;5.38;;;3.25;;
18443;SDS011;9350;53.176;8.194;2022-10-16T00:21:19;5.75;;;2.40;;
18443;SDS011;9350;53.176;8.194;2022-10-16T00:23:49;3.53;;;2.53;;
18443;SDS011;9350;53.176;8.194;2022-10-16T00:26:17;8.32;;;3.00;;
18443;SDS011;9350;53.176;8.194;2022-10-16T00:28:46;4.65;;;2.70;;
18443;SDS011;9350;53.176;8.194;2022-10-16T00:31:13;6.60;;;3.00;;
18443;SDS011;9350;53.176;8.194;2022-10-16T00:33:40;2.95;;;2.50;;
18443;SDS011;9350;53.176;8.194;2022-10-16T00:36:08;7.72;;;2.80;;
18443;SDS011;9350;53.176;8.194;2022-10-16T00:38:37;5.43;;;2.40;;
18443;SDS011;9350;53.176;8.194;2022-10-16T00:41:04;3.88;;;2.70;;
18443;SDS011;9350;53.176;8.194;2022-10-16T00:43:36;3.67;;;2.60;;
18443;SDS011;9350;53.176;8.194;2022-10-16T00:46:09;6.70;;;2.35;;
18443;SDS011;9350;53.176;8.194;2022-10-16T00:48:40;3.90;;;2.38;;
18443;SDS011;9350;53.176;8.194;2022-10-16T00:51:08;5.78;;;2.60;;
18443;SDS011;9350;53.176;8.194;2022-10-16T00:53:34;6.18;;;2.50;;
18443;SDS011;9350;53.176;8.194;2022-10-16T00:56:02;8.65;;;2.60;;
18443;SDS011;9350;53.176;8.194;2022-10-16T00:58:29;3.78;;;2.45;;
18443;SDS011;9350;53.176;8.194;2022-10-16T01:00:56;8.30;;;2.78;;
18443;SDS011;9350;53.176;8.194;2022-10-16T01:03:26;8.77;;;2.90;;
18443;SDS011;9350;53.176;8.194;2022-10-16T01:05:57;6.43;;;2.70;;
18443;SDS011;9350;53.176;8.194;2022-10-16T01:08:34;7.63;;;2.20;;
18443;SDS011;9350;53.176;8.194;2022-10-16T01:11:09;3.33;;;2.00;;
18443;SDS011;9350;53.176;8.194;2022-10-16T01:13:43;3.35;;;2.45;;
18443;SDS011;9350;53.176;8.194;2022-10-16T01:16:15;7.20;;;2.35;;
18443;SDS011;9350;53.176;8.194;2022-10-16T01:18:59;9.43;;;2.42;;
18443;SDS011;9350;53.176;8.194;2022-10-16T01:21:31;8.82;;;2.63;;
18443;SDS011;9350;53.176;8.194;2022-10-16T01:24:03;4.18;;;2.13;;
18443;SDS011;9350;53.176;8.194;2022-10-16T01:26:36;7.35;;;2.20;;
18443;SDS011;9350;53.176;8.194;2022-10-16T01:29:15;7.85;;;2.10;;
18443;SDS011;9350;53.176;8.194;2022-10-16T01:31:46;4.97;;;2.40;;
18443;SDS011;9350;53.176;8.194;2022-10-16T01:34:17;6.30;;;2.38;;
18443;SDS011;9350;53.176;8.194;2022-10-16T01:36:50;7.00;;;2.13;;
18443;SDS011;9350;53.176;8.194;2022-10-16T01:39:21;6.13;;;2.42;;
18443;SDS011;9350;53.176;8.194;2022-10-16T01:42:00;5.88;;;2.20;;
18443;SDS011;9350;53.176;8.194;2022-10-16T01:44:32;5.18;;;2.35;;
18443;SDS011;9350;53.176;8.194;2022-10-16T01:47:01;5.00;;;2.38;;
18443;SDS011;9350;53.176;8.194;2022-10-16T01:49:29;4.65;;;2.30;;
18443;SDS011;9350;53.176;8.194;2022-10-16T01:52:00;3.13;;;2.53;;
18443;SDS011;9350;53.176;8.194;2022-10-16T01:54:32;6.05;;;2.08;;
18443;SDS011;9350;53.176;8.194;2022-10-16T01:57:01;8.00;;;2.20;;
18443;SDS011;9350;53.176;8.194;2022-10-16T01:59:32;5.97;;;2.38;;
18443;SDS011;9350;53.176;8.194;2022-10-16T02:02:03;5.03;;;2.95;;
18443;SDS011;9350;53.176;8.194;2022-10-16T02:04:34;6.93;;;2.42;;
18443;SDS011;9350;53.176;8.194;2022-10-16T02:07:04;2.53;;;2.13;;
18443;SDS011;9350;53.176;8.194;2022-10-16T02:09:32;3.92;;;1.90;;
18443;SDS011;9350;53.176;8.194;2022-10-16T02:12:00;4.63;;;1.80;;
18443;SDS011;9350;53.176;8.194;2022-10-16T02:14:33;3.55;;;1.90;;
18443;SDS011;9350;53.176;8.194;2022-10-16T02:17:00;4.57;;;1.73;;
18443;SDS011;9350;53.176;8.194;2022-10-16T02:19:27;3.95;;;2.00;;
18443;SDS011;9350;53.176;8.194;2022-10-16T02:21:54;3.50;;;1.92;;
18443;SDS011;9350;53.176;8.194;2022-10-16T02:24:24;7.78;;;2.03;;
18443;SDS011;9350;53.176;8.194;2022-10-16T02:27:00;3.42;;;2.08;;
18443;SDS011;9350;53.176;8.194;2022-10-16T02:29:34;4.80;;;2.20;;
18443;SDS011;9350;53.176;8.194;2022-10-16T02:32:04;10.35;;;2.45;;
18443;SDS011;9350;53.176;8.194;2022-10-16T02:34:35;13.73;;;2.17;;
18443;SDS011;9350;53.176;8.194;2022-10-16T02:37:03;3.30;;;1.73;;
18443;SDS011;9350;53.176;8.194;2022-10-16T02:39:31;4.35;;;2.22;;
18443;SDS011;9350;53.176;8.194;2022-10-16T02:41:59;3.35;;;2.00;;
18443;SDS011;9350;53.176;8.194;2022-10-16T02:44:26;4.30;;;1.80;;
18443;SDS011;9350;53.176;8.194;2022-10-16T02:46:54;4.80;;;2.10;;
18443;SDS011;9350;53.176;8.194;2022-10-16T02:49:21;6.30;;;1.70;;
18443;SDS011;9350;53.176;8.194;2022-10-16T02:51:48;3.60;;;1.73;;
18443;SDS011;9350;53.176;8.194;2022-10-16T02:54:14;6.80;;;1.88;;
18443;SDS011;9350;53.176;8.194;2022-10-16T02:56:41;6.57;;;2.10;;
18443;SDS011;9350;53.176;8.194;2022-10-16T02:59:08;9.55;;;2.00;;
18443;SDS011;9350;53.176;8.194;2022-10-16T03:01:35;2.63;;;1.70;;
18443;SDS011;9350;53.176;8.194;2022-10-16T03:04:03;3.28;;;1.70;;
18443;SDS011;9350;53.176;8.194;2022-10-16T03:06:30;3.65;;;1.83;;
18443;SDS011;9350;53.176;8.194;2022-10-16T03:08:57;3.03;;;1.85;;
18443;SDS011;9350;53.176;8.194;2022-10-16T03:11:23;3.38;;;1.77;;
18443;SDS011;9350;53.176;8.194;2022-10-16T03:13:51;4.35;;;1.92;;
18443;SDS011;9350;53.176;8.194;2022-10-16T03:16:18;3.03;;;1.73;;
18443;SDS011;9350;53.176;8.194;2022-10-16T03:18:47;5.72;;;2.28;;
18443;SDS011;9350;53.176;8.194;2022-10-16T03:21:15;6.65;;;1.90;;
18443;SDS011;9350;53.176;8.194;2022-10-16T03:23:42;3.75;;;1.70;;
18443;SDS011;9350;53.176;8.194;2022-10-16T03:26:09;1.73;;;1.52;;
18443;SDS011;9350;53.176;8.194;2022-10-16T03:28:36;3.83;;;1.75;;
18443;SDS011;9350;53.176;8.194;2022-10-16T03:31:02;4.47;;;1.80;;
18443;SDS011;9350;53.176;8.194;2022-10-16T03:33:29;7.93;;;1.98;;
18443;SDS011;9350;53.176;8.194;2022-10-16T03:35:56;4.38;;;1.80;;
18443;SDS011;9350;53.176;8.194;2022-10-16T03:38:24;5.95;;;1.92;;
18443;SDS011;9350;53.176;8.194;2022-10-16T03:40:51;7.30;;;1.88;;
18443;SDS011;9350;53.176;8.194;2022-10-16T03:43:17;6.50;;;1.88;;
18443;SDS011;9350;53.176;8.194;2022-10-16T03:45:44;5.13;;;1.92;;
18443;SDS011;9350;53.176;8.194;2022-10-16T03:48:11;10.95;;;2.00;;
18443;SDS011;9350;53.176;8.194;2022-10-16T03:50:37;6.03;;;2.03;;
18443;SDS011;9350;53.176;8.194;2022-10-16T03:53:04;7.63;;;2.13;;
18443;SDS011;9350;53.176;8.194;2022-10-16T03:55:33;4.13;;;1.98;;
18443;SDS011;9350;53.176;8.194;2022-10-16T03:58:01;7.13;;;2.10;;
18443;SDS011;9350;53.176;8.194;2022-10-16T04:00:27;6.10;;;2.20;;
18443;SDS011;9350;53.176;8.194;2022-10-16T04:02:54;3.97;;;2.15;;
18443;SDS011;9350;53.176;8.194;2022-10-16T04:05:21;12.02;;;2.67;;
18443;SDS011;9350;53.176;8.194;2022-10-16T04:07:47;4.47;;;2.15;;
18443;SDS011;9350;53.176;8.194;2022-10-16T04:10:14;4.88;;;2.28;;
18443;SDS011;9350;53.176;8.194;2022-10-16T04:12:42;6.03;;;2.25;;
18443;SDS011;9350;53.176;8.194;2022-10-16T04:15:09;4.53;;;2.60;;
18443;SDS011;9350;53.176;8.194;2022-10-16T04:17:36;5.43;;;3.00;;
18443;SDS011;9350;53.176;8.194;2022-10-16T04:20:03;4.85;;;2.58;;
18443;SDS011;9350;53.176;8.194;2022-10-16T04:22:30;7.40;;;3.03;;
18443;SDS011;9350;53.176;8.194;2022-10-16T04:24:57;10.95;;;3.35;;
18443;SDS011;9350;53.176;8.194;2022-10-16T04:27:24;3.15;;;2.90;;
18443;SDS011;9350;53.176;8.194;2022-10-16T04:29:52;5.97;;;3.70;;
18443;SDS011;9350;53.176;8.194;2022-10-16T04:32:19;8.35;;;2.90;;
18443;SDS011;9350;53.176;8.194;2022-10-16T04:34:46;7.13;;;3.33;;
18443;SDS011;9350;53.176;8.194;2022-10-16T04:37:12;9.15;;;4.07;;
18443;SDS011;9350;53.176;8.194;2022-10-16T04:39:39;11.02;;;3.60;;
18443;SDS011;9350;53.176;8.194;2022-10-16T04:42:06;7.47;;;4.03;;
18443;SDS011;9350;53.176;8.194;2022-10-16T04:44:32;9.65;;;3.90;;
18443;SDS011;9350;53.176;8.194;2022-10-16T04:47:00;6.55;;;3.63;;
18443;SDS011;9350;53.176;8.194;2022-10-16T04:49:27;6.60;;;3.63;;
18443;SDS011;9350;53.176;8.194;2022-10-16T04:51:54;6.45;;;3.92;;
18443;SDS011;9350;53.176;8.194;2022-10-16T04:54:21;7.40;;;4.07;;
18443;SDS011;9350;53.176;8.194;2022-10-16T04:56:48;8.40;;;4.10;;
18443;SDS011;9350;53.176;8.194;2022-10-16T04:59:16;6.88;;;4.18;;
18443;SDS011;9350;53.176;8.194;2022-10-16T05:01:43;11.55;;;4.15;;
18443;SDS011;9350;53.176;8.194;2022-10-16T05:04:12;9.73;;;4.88;;
18443;SDS011;9350;53.176;8.194;2022-10-16T05:06:39;9.18;;;4.75;;
18443;SDS011;9350;53.176;8.194;2022-10-16T05:09:07;8.00;;;4.88;;
18443;SDS011;9350;53.176;8.194;2022-10-16T05:11:34;10.88;;;4.70;;
18443;SDS011;9350;53.176;8.194;2022-10-16T05:14:01;8.88;;;5.03;;
18443;SDS011;9350;53.176;8.194;2022-10-16T05:16:28;9.88;;;5.10;;
18443;SDS011;9350;53.176;8.194;2022-10-16T05:18:56;7.88;;;5.25;;
18443;SDS011;9350;53.176;8.194;2022-10-16T05:21:24;10.02;;;5.32;;
18443;SDS011;9350;53.176;8.194;2022-10-16T05:23:52;8.75;;;5.30;;
18443;SDS011;9350;53.176;8.194;2022-10-16T05:26:19;13.73;;;5.82;;
18443;SDS011;9350;53.176;8.194;2022-10-16T05:28:46;9.25;;;5.72;;
18443;SDS011;9350;53.176;8.194;2022-10-16T05:31:12;9.85;;;5.90;;
18443;SDS011;9350;53.176;8.194;2022-10-16T05:33:39;7.40;;;5.25;;
18443;SDS011;9350;53.176;8.194;2022-10-16T05:36:06;8.43;;;6.05;;
18443;SDS011;9350;53.176;8.194;2022-10-16T05:38:36;16.20;;;6.05;;
18443;SDS011;9350;53.176;8.194;2022-10-16T05:41:04;8.70;;;6.20;;
18443;SDS011;9350;53.176;8.194;2022-10-16T05:43:31;9.70;;;5.95;;
18443;SDS011;9350;53.176;8.194;2022-10-16T05:45:59;16.00;;;6.30;;
18443;SDS011;9350;53.176;8.194;2022-10-16T05:48:27;8.82;;;5.60;;
18443;SDS011;9350;53.176;8.194;2022-10-16T05:50:57;9.70;;;6.15;;
18443;SDS011;9350;53.176;8.194;2022-10-16T05:53:25;16.05;;;6.10;;
18443;SDS011;9350;53.176;8.194;2022-10-16T05:55:54;12.32;;;6.50;;
18443;SDS011;9350;53.176;8.194;2022-10-16T05:58:22;11.18;;;6.68;;
18443;SDS011;9350;53.176;8.194;2022-10-16T06:00:55;12.13;;;6.13;;
18443;SDS011;9350;53.176;8.194;2022-10-16T06:03:22;8.48;;;5.93;;
18443;SDS011;9350;53.176;8.194;2022-10-16T06:05:49;12.23;;;6.07;;
18443;SDS011;9350;53.176;8.194;2022-10-16T06:08:16;8.23;;;5.78;;
18443;SDS011;9350;53.176;8.194;2022-10-16T06:10:43;10.65;;;6.40;;
18443;SDS011;9350;53.176;8.194;2022-10-16T06:13:11;10.00;;;5.47;;
18443;SDS011;9350;53.176;8.194;2022-10-16T06:15:39;12.43;;;6.00;;
18443;SDS011;9350;53.176;8.194;2022-10-16T06:18:07;14.65;;;6.88;;
18443;SDS011;9350;53.176;8.194;2022-10-16T06:20:34;13.30;;;6.70;;
18443;SDS011;9350;53.176;8.194;2022-10-16T06:23:01;9.85;;;6.28;;
18443;SDS011;9350;53.176;8.194;2022-10-16T06:25:29;10.95;;;6.10;;
18443;SDS011;9350;53.176;8.194;2022-10-16T06:27:56;10.98;;;6.57;;
18443;SDS011;9350;53.176;8.194;2022-10-16T06:30:24;12.48;;;6.03;;
18443;SDS011;9350;53.176;8.194;2022-10-16T06:32:51;11.55;;;5.80;;
18443;SDS011;9350;53.176;8.194;2022-10-16T06:35:17;11.40;;;5.50;;
18443;SDS011;9350;53.176;8.194;2022-10-16T06:37:44;9.10;;;6.03;;
18443;SDS011;9350;53.176;8.194;2022-10-16T06:40:11;9.65;;;6.10;;
18443;SDS011;9350;53.176;8.194;2022-10-16T06:42:39;9.40;;;5.55;;
18443;SDS011;9350;53.176;8.194;2022-10-16T06:45:06;8.48;;;5.93;;
18443;SDS011;9350;53.176;8.194;2022-10-16T06:47:35;7.38;;;5.05;;
18443;SDS011;9350;53.176;8.194;2022-10-16T06:50:02;9.30;;;5.15;;
18443;SDS011;9350;53.176;8.194;2022-10-16T06:52:31;9.38;;;5.00;;
18443;SDS011;9350;53.176;8.194;2022-10-16T06:54:58;7.53;;;4.80;;
18443;SDS011;9350;53.176;8.194;2022-10-16T06:57:25;7.28;;;4.82;;
18443;SDS011;9350;53.176;8.194;2022-10-16T06:59:51;8.00;;;4.75;;
18443;SDS011;9350;53.176;8.194;2022-10-16T07:02:18;5.95;;;4.65;;
18443;SDS011;9350;53.176;8.194;2022-10-16T07:04:46;9.13;;;4.80;;
18443;SDS011;9350;53.176;8.194;2022-10-16T07:07:13;5.80;;;4.35;;
18443;SDS011;9350;53.176;8.194;2022-10-16T07:09:40;8.82;;;4.82;;
18443;SDS011;9350;53.176;8.194;2022-10-16T07:12:07;8.82;;;4.45;;
18443;SDS011;9350;53.176;8.194;2022-10-16T07:14:33;5.60;;;4.38;;
18443;SDS011;9350;53.176;8.194;2022-10-16T07:17:00;6.85;;;4.18;;
18443;SDS011;9350;53.176;8.194;2022-10-16T07:19:27;7.30;;;4.32;;
18443;SDS011;9350;53.176;8.194;2022-10-16T07:21:55;6.63;;;3.80;;
18443;SDS011;9350;53.176;8.194;2022-10-16T07:24:22;6.38;;;4.47;;
18443;SDS011;9350;53.176;8.194;2022-10-16T07:26:49;6.65;;;3.92;;
18443;SDS011;9350;53.176;8.194;2022-10-16T07:29:16;11.07;;;4.28;;
18443;SDS011;9350;53.176;8.194;2022-10-16T07:31:45;6.10;;;4.18;;
18443;SDS011;9350;53.176;8.194;2022-10-16T07:34:12;5.80;;;3.70;;
18443;SDS011;9350;53.176;8.194;2022-10-16T07:36:40;5.78;;;3.55;;
18443;SDS011;9350;53.176;8.194;2022-10-16T07:39:09;6.07;;;3.88;;
18443;SDS011;9350;53.176;8.194;2022-10-16T07:41:35;9.10;;;3.92;;
18443;SDS011;9350;53.176;8.194;2022-10-16T07:44:02;4.03;;;3.15;;
18443;SDS011;9350;53.176;8.194;2022-10-16T07:46:30;5.47;;;3.65;;
18443;SDS011;9350;53.176;8.194;2022-10-16T07:48:58;6.35;;;3.78;;
18443;SDS011;9350;53.176;8.194;2022-10-16T07:51:26;5.25;;;3.38;;
18443;SDS011;9350;53.176;8.194;2022-10-16T07:53:53;5.85;;;3.42;;
18443;SDS011;9350;53.176;8.194;2022-10-16T07:56:21;8.50;;;3.50;;
18443;SDS011;9350;53.176;8.194;2022-10-16T07:58:49;6.88;;;3.92;;
18443;SDS011;9350;53.176;8.194;2022-10-16T08:01:16;6.75;;;3.25;;
18443;SDS011;9350;53.176;8.194;2022-10-16T08:03:45;5.63;;;3.65;;
18443;SDS011;9350;53.176;8.194;2022-10-16T08:06:12;4.78;;;3.30;;
18443;SDS011;9350;53.176;8.194;2022-10-16T08:08:39;4.47;;;2.78;;
18443;SDS011;9350;53.176;8.194;2022-10-16T08:11:06;3.72;;;3.22;;
18443;SDS011;9350;53.176;8.194;2022-10-16T08:13:35;6.93;;;2.78;;
18443;SDS011;9350;53.176;8.194;2022-10-16T08:16:02;5.07;;;3.00;;
18443;SDS011;9350;53.176;8.194;2022-10-16T08:18:32;5.55;;;3.05;;
18443;SDS011;9350;53.176;8.194;2022-10-16T08:21:00;4.70;;;2.70;;
18443;SDS011;9350;53.176;8.194;2022-10-16T08:23:27;4.70;;;2.70;;
18443;SDS011;9350;53.176;8.194;2022-10-16T08:25:54;6.72;;;2.50;;
18443;SDS011;9350;53.176;8.194;2022-10-16T08:28:22;5.63;;;2.67;;
18443;SDS011;9350;53.176;8.194;2022-10-16T08:30:50;6.30;;;2.80;;
18443;SDS011;9350;53.176;8.194;2022-10-16T08:33:17;2.97;;;2.33;;
18443;SDS011;9350;53.176;8.194;2022-10-16T08:35:50;3.05;;;2.20;;
18443;SDS011;9350;53.176;8.194;2022-10-16T08:38:18;2.75;;;2.20;;
18443;SDS011;9350;53.176;8.194;2022-10-16T08:40:45;2.55;;;2.00;;
18443;SDS011;9350;53.176;8.194;2022-10-16T08:43:20;3.42;;;2.30;;
18443;SDS011;9350;53.176;8.194;2022-10-16T08:46:11;5.03;;;1.80;;
18443;SDS011;9350;53.176;8.194;2022-10-16T08:48:48;5.10;;;2.17;;
18443;SDS011;9350;53.176;8.194;2022-10-16T08:51:18;6.55;;;2.10;;
18443;SDS011;9350;53.176;8.194;2022-10-16T08:53:49;7.00;;;2.42;;
18443;SDS011;9350;53.176;8.194;2022-10-16T08:56:20;7.32;;;2.10;;
18443;SDS011;9350;53.176;8.194;2022-10-16T08:58:47;8.45;;;2.22;;
18443;SDS011;9350;53.176;8.194;2022-10-16T09:01:17;8.25;;;2.50;;
18443;SDS011;9350;53.176;8.194;2022-10-16T09:06:50;7.15;;;2.05;;
18443;SDS011;9350;53.176;8.194;2022-10-16T09:09:31;7.20;;;2.15;;
18443;SDS011;9350;53.176;8.194;2022-10-16T09:12:11;7.10;;;2.00;;
18443;SDS011;9350;53.176;8.194;2022-10-16T09:14:46;8.40;;;2.10;;
18443;SDS011;9350;53.176;8.194;2022-10-16T09:17:27;3.35;;;2.08;;
18443;SDS011;9350;53.176;8.194;2022-10-16T09:20:04;6.70;;;1.70;;
18443;SDS011;9350;53.176;8.194;2022-10-16T09:22:45;4.32;;;2.22;;
18443;SDS011;9350;53.176;8.194;2022-10-16T09:25:13;5.03;;;1.90;;
18443;SDS011;9350;53.176;8.194;2022-10-16T09:27:41;3.33;;;1.70;;
18443;SDS011;9350;53.176;8.194;2022-10-16T09:30:12;2.25;;;1.85;;
18443;SDS011;9350;53.176;8.194;2022-10-16T09:32:41;6.22;;;1.90;;
18443;SDS011;9350;53.176;8.194;2022-10-16T09:35:11;5.25;;;1.80;;
18443;SDS011;9350;53.176;8.194;2022-10-16T09:37:41;6.72;;;1.70;;
18443;SDS011;9350;53.176;8.194;2022-10-16T09:40:13;3.13;;;1.95;;
18443;SDS011;9350;53.176;8.194;2022-10-16T09:42:50;5.70;;;1.90;;
18443;SDS011;9350;53.176;8.194;2022-10-16T09:45:23;3.22;;;1.67;;
18443;SDS011;9350;53.176;8.194;2022-10-16T09:47:51;4.30;;;1.77;;
18443;SDS011;9350;53.176;8.194;2022-10-16T09:50:22;5.88;;;1.48;;
18443;SDS011;9350;53.176;8.194;2022-10-16T09:52:51;8.10;;;1.65;;
18443;SDS011;9350;53.176;8.194;2022-10-16T09:55:30;5.13;;;1.80;;
18443;SDS011;9350;53.176;8.194;2022-10-16T09:57:57;2.83;;;1.40;;
18443;SDS011;9350;53.176;8.194;2022-10-16T10:00:24;6.13;;;1.50;;
18443;SDS011;9350;53.176;8.194;2022-10-16T10:02:52;6.20;;;1.27;;
18443;SDS011;9350;53.176;8.194;2022-10-16T10:05:21;3.28;;;1.42;;
18443;SDS011;9350;53.176;8.194;2022-10-16T10:07:53;2.55;;;1.20;;
18443;SDS011;9350;53.176;8.194;2022-10-16T10:10:22;3.65;;;1.15;;
18443;SDS011;9350;53.176;8.194;2022-10-16T10:12:50;10.95;;;1.52;;
18443;SDS011;9350;53.176;8.194;2022-10-16T10:15:17;4.93;;;1.42;;
18443;SDS011;9350;53.176;8.194;2022-10-16T10:17:47;4.72;;;1.27;;
18443;SDS011;9350;53.176;8.194;2022-10-16T10:20:21;4.32;;;1.20;;
18443;SDS011;9350;53.176;8.194;2022-10-16T10:22:50;4.18;;;1.30;;
18443;SDS011;9350;53.176;8.194;2022-10-16T10:25:29;5.75;;;1.50;;
18443;SDS011;9350;53.176;8.194;2022-10-16T10:28:28;5.60;;;1.30;;
18443;SDS011;9350;53.176;8.194;2022-10-16T10:31:09;7.32;;;1.30;;
18443;SDS011;9350;53.176;8.194;2022-10-16T10:33:41;4.05;;;1.33;;
18443;SDS011;9350;53.176;8.194;2022-10-16T10:36:25;3.30;;;1.13;;
18443;SDS011;9350;53.176;8.194;2022-10-16T10:38:59;3.88;;;1.38;;
18443;SDS011;9350;53.176;8.194;2022-10-16T10:41:40;3.45;;;1.05;;
18443;SDS011;9350;53.176;8.194;2022-10-16T10:44:26;3.72;;;1.10;;
18443;SDS011;9350;53.176;8.194;2022-10-16T10:47:05;3.67;;;1.00;;
18443;SDS011;9350;53.176;8.194;2022-10-16T10:49:42;3.70;;;1.45;;
18443;SDS011;9350;53.176;8.194;2022-10-16T10:52:31;3.90;;;1.40;;
18443;SDS011;9350;53.176;8.194;2022-10-16T10:55:10;6.72;;;1.45;;
18443;SDS011;9350;53.176;8.194;2022-10-16T10:57:46;2.00;;;1.40;;
18443;SDS011;9350;53.176;8.194;2022-10-16T11:00:26;4.03;;;1.13;;
18443;SDS011;9350;53.176;8.194;2022-10-16T11:02:58;3.50;;;1.52;;
18443;SDS011;9350;53.176;8.194;2022-10-16T11:05:40;3.75;;;1.33;;
18443;SDS011;9350;53.176;8.194;2022-10-16T11:08:10;4.28;;;1.35;;
18443;SDS011;9350;53.176;8.194;2022-10-16T11:10:44;5.75;;;1.58;;
18443;SDS011;9350;53.176;8.194;2022-10-16T11:13:17;3.45;;;1.15;;
18443;SDS011;9350;53.176;8.194;2022-10-16T11:15:49;6.38;;;1.30;;
18443;SDS011;9350;53.176;8.194;2022-10-16T11:18:20;4.55;;;1.30;;
18443;SDS011;9350;53.176;8.194;2022-10-16T11:20:51;2.25;;;0.98;;
18443;SDS011;9350;53.176;8.194;2022-10-16T11:23:24;4.57;;;1.27;;
18443;SDS011;9350;53.176;8.194;2022-10-16T11:25:55;7.05;;;1.88;;
18443;SDS011;9350;53.176;8.194;2022-10-16T11:28:26;6.03;;;1.20;;
18443;SDS011;9350;53.176;8.194;2022-10-16T11:30:59;11.18;;;1.70;;
18443;SDS011;9350;53.176;8.194;2022-10-16T11:33:30;5.05;;;1.20;;
18443;SDS011;9350;53.176;8.194;2022-10-16T11:36:05;7.30;;;1.35;;
18443;SDS011;9350;53.176;8.194;2022-10-16T11:38:42;6.80;;;1.30;;
18443;SDS011;9350;53.176;8.194;2022-10-16T11:41:18;2.88;;;1.20;;
18443;SDS011;9350;53.176;8.194;2022-10-16T11:43:52;7.13;;;1.38;;
18443;SDS011;9350;53.176;8.194;2022-10-16T11:46:28;4.88;;;1.60;;
18443;SDS011;9350;53.176;8.194;2022-10-16T11:48:57;10.88;;;1.85;;
18443;SDS011;9350;53.176;8.194;2022-10-16T11:51:31;5.78;;;1.50;;
18443;SDS011;9350;53.176;8.194;2022-10-16T11:54:04;3.50;;;1.17;;
18443;SDS011;9350;53.176;8.194;2022-10-16T11:56:40;6.18;;;1.42;;
18443;SDS011;9350;53.176;8.194;2022-10-16T11:59:13;6.43;;;1.60;;
18443;SDS011;9350;53.176;8.194;2022-10-16T12:01:47;4.55;;;1.20;;
18443;SDS011;9350;53.176;8.194;2022-10-16T12:04:20;9.15;;;1.58;;
18443;SDS011;9350;53.176;8.194;2022-10-16T12:06:54;7.28;;;1.60;;
18443;SDS011;9350;53.176;8.194;2022-10-16T12:09:27;11.38;;;1.52;;
18443;SDS011;9350;53.176;8.194;2022-10-16T12:11:56;3.97;;;1.50;;
18443;SDS011;9350;53.176;8.194;2022-10-16T12:14:37;7.20;;;1.58;;
18443;SDS011;9350;53.176;8.194;2022-10-16T12:19:57;5.53;;;1.48;;
18443;SDS011;9350;53.176;8.194;2022-10-16T12:22:26;4.88;;;1.42;;
18443;SDS011;9350;53.176;8.194;2022-10-16T12:24:56;6.50;;;1.38;;
18443;SDS011;9350;53.176;8.194;2022-10-16T12:27:24;8.77;;;1.77;;
18443;SDS011;9350;53.176;8.194;2022-10-16T12:29:54;3.15;;;1.33;;
18443;SDS011;9350;53.176;8.194;2022-10-16T12:32:25;8.50;;;1.60;;
18443;SDS011;9350;53.176;8.194;2022-10-16T12:34:56;2.63;;;1.25;;
18443;SDS011;9350;53.176;8.194;2022-10-16T12:37:23;8.55;;;1.58;;
18443;SDS011;9350;53.176;8.194;2022-10-16T12:39:52;4.25;;;1.40;;
18443;SDS011;9350;53.176;8.194;2022-10-16T12:42:23;8.77;;;1.67;;
18443;SDS011;9350;53.176;8.194;2022-10-16T12:44:58;5.30;;;1.48;;
18443;SDS011;9350;53.176;8.194;2022-10-16T12:47:35;5.13;;;1.20;;
18443;SDS011;9350;53.176;8.194;2022-10-16T12:50:03;4.85;;;1.55;;
18443;SDS011;9350;53.176;8.194;2022-10-16T12:52:50;10.55;;;1.52;;
18443;SDS011;9350;53.176;8.194;2022-10-16T12:55:18;4.35;;;1.27;;
18443;SDS011;9350;53.176;8.194;2022-10-16T12:57:50;6.88;;;1.50;;
18443;SDS011;9350;53.176;8.194;2022-10-16T13:00:32;5.95;;;1.45;;
18443;SDS011;9350;53.176;8.194;2022-10-16T13:03:30;5.78;;;1.50;;
18443;SDS011;9350;53.176;8.194;2022-10-16T13:06:15;9.95;;;1.50;;
18443;SDS011;9350;53.176;8.194;2022-10-16T13:08:55;8.38;;;1.65;;
18443;SDS011;9350;53.176;8.194;2022-10-16T13:11:35;8.80;;;1.85;;
18443;SDS011;9350;53.176;8.194;2022-10-16T13:14:18;7.57;;;1.42;;
18443;SDS011;9350;53.176;8.194;2022-10-16T13:17:13;8.18;;;1.50;;
18443;SDS011;9350;53.176;8.194;2022-10-16T13:19:51;12.23;;;1.50;;
18443;SDS011;9350;53.176;8.194;2022-10-16T13:22:26;4.78;;;1.33;;
18443;SDS011;9350;53.176;8.194;2022-10-16T13:25:02;7.22;;;1.48;;
18443;SDS011;9350;53.176;8.194;2022-10-16T13:27:41;6.88;;;1.50;;
18443;SDS011;9350;53.176;8.194;2022-10-16T13:30:16;1.70;;;1.20;;
18443;SDS011;9350;53.176;8.194;2022-10-16T13:32:45;7.05;;;1.40;;
18443;SDS011;9350;53.176;8.194;2022-10-16T13:35:21;8.43;;;1.65;;
18443;SDS011;9350;53.176;8.194;2022-10-16T13:37:49;8.57;;;1.52;;
18443;SDS011;9350;53.176;8.194;2022-10-16T13:40:20;5.82;;;1.30;;
18443;SDS011;9350;53.176;8.194;2022-10-16T13:42:49;7.00;;;1.27;;
18443;SDS011;9350;53.176;8.194;2022-10-16T13:45:18;4.60;;;1.50;;
18443;SDS011;9350;53.176;8.194;2022-10-16T13:47:46;8.27;;;1.55;;
18443;SDS011;9350;53.176;8.194;2022-10-16T13:50:15;6.03;;;1.42;;
18443;SDS011;9350;53.176;8.194;2022-10-16T13:52:44;5.32;;;1.50;;
18443;SDS011;9350;53.176;8.194;2022-10-16T13:55:11;5.47;;;1.33;;
18443;SDS011;9350;53.176;8.194;2022-10-16T13:57:38;3.90;;;1.35;;
18443;SDS011;9350;53.176;8.194;2022-10-16T14:00:17;11.23;;;1.48;;
18443;SDS011;9350;53.176;8.194;2022-10-16T14:02:49;6.80;;;1.63;;
18443;SDS011;9350;53.176;8.194;2022-10-16T14:05:19;4.50;;;1.40;;
18443;SDS011;9350;53.176;8.194;2022-10-16T14:07:47;11.75;;;2.10;;
18443;SDS011;9350;53.176;8.194;2022-10-16T14:10:20;6.97;;;1.48;;
18443;SDS011;9350;53.176;8.194;2022-10-16T14:12:54;5.43;;;1.35;;
18443;SDS011;9350;53.176;8.194;2022-10-16T14:15:23;5.05;;;1.40;;
18443;SDS011;9350;53.176;8.194;2022-10-16T14:17:51;7.55;;;1.67;;
18443;SDS011;9350;53.176;8.194;2022-10-16T14:20:18;4.63;;;1.20;;
18443;SDS011;9350;53.176;8.194;2022-10-16T14:22:48;11.52;;;1.83;;
18443;SDS011;9350;53.176;8.194;2022-10-16T14:25:26;2.88;;;1.27;;
18443;SDS011;9350;53.176;8.194;2022-10-16T14:27:58;6.57;;;1.45;;
18443;SDS011;9350;53.176;8.194;2022-10-16T14:30:28;8.93;;;1.55;;
18443;SDS011;9350;53.176;8.194;2022-10-16T14:32:57;4.25;;;1.50;;
18443;SDS011;9350;53.176;8.194;2022-10-16T14:35:26;8.20;;;1.75;;
18443;SDS011;9350;53.176;8.194;2022-10-16T14:37:55;8.55;;;1.52;;
18443;SDS011;9350;53.176;8.194;2022-10-16T14:40:24;6.68;;;1.45;;
18443;SDS011;9350;53.176;8.194;2022-10-16T14:42:52;5.32;;;1.45;;
18443;SDS011;9350;53.176;8.194;2022-10-16T14:45:20;6.35;;;1.40;;
18443;SDS011;9350;53.176;8.194;2022-10-16T14:47:50;5.55;;;1.52;;
18443;SDS011;9350;53.176;8.194;2022-10-16T14:50:20;7.88;;;1.80;;
18443;SDS011;9350;53.176;8.194;2022-10-16T14:52:47;5.65;;;1.40;;
18443;SDS011;9350;53.176;8.194;2022-10-16T14:55:14;2.88;;;1.35;;
18443;SDS011;9350;53.176;8.194;2022-10-16T14:57:42;4.75;;;1.30;;
18443;SDS011;9350;53.176;8.194;2022-10-16T15:00:13;5.38;;;1.35;;
18443;SDS011;9350;53.176;8.194;2022-10-16T15:02:43;6.50;;;1.63;;
18443;SDS011;9350;53.176;8.194;2022-10-16T15:05:13;5.70;;;1.70;;
18443;SDS011;9350;53.176;8.194;2022-10-16T15:07:41;5.18;;;1.25;;
18443;SDS011;9350;53.176;8.194;2022-10-16T15:10:08;4.10;;;1.38;;
18443;SDS011;9350;53.176;8.194;2022-10-16T15:12:35;14.52;;;1.80;;
18443;SDS011;9350;53.176;8.194;2022-10-16T15:15:09;8.18;;;1.50;;
18443;SDS011;9350;53.176;8.194;2022-10-16T15:17:49;7.78;;;1.55;;
18443;SDS011;9350;53.176;8.194;2022-10-16T15:20:19;11.73;;;1.70;;
18443;SDS011;9350;53.176;8.194;2022-10-16T15:22:46;6.57;;;1.80;;
18443;SDS011;9350;53.176;8.194;2022-10-16T15:25:16;13.30;;;1.95;;